Hub


Voltar

 INFORMAÇÕES METEOROLÓGICAS

METAR FOR GCLA


ADDS - METARS form results

(2342 UTC 19 August 2019)
Data provider http://aviationweather.gov/metar/data/
 
METAR text: GCLA 192330Z AUTO 03015KT 9999 SCT022 23/19 Q1020
Conditions at: GCLA (LA PALMA AIRPORT, ES) observed 2330 UTC 19 August 2019
Temperature: 23.0°C (73°F)
Dewpoint: 19.0°C (66°F) [RH = 78%]
Pressure (altimeter): 30.12 inches Hg (1020.0 mb)
Winds: from the NNE (30 degrees) at 17 MPH (15 knots; 7.7 m/s)
Visibility: 6 or more miles (10+ km)
Ceiling: at least 12,000 feet AGL
Clouds: scattered clouds at 2200 feet AGL
Weather: no significant weather observed at this time

METAR text: GCLA 192300Z AUTO 03014KT 9999 BKN022 23/19 Q1020
Conditions at: GCLA (LA PALMA AIRPORT, ES) observed 2300 UTC 19 August 2019
Temperature: 23.0°C (73°F)
Dewpoint: 19.0°C (66°F) [RH = 78%]
Pressure (altimeter): 30.12 inches Hg (1020.0 mb)
Winds: from the NNE (30 degrees) at 16 MPH (14 knots; 7.2 m/s)
Visibility: 6 or more miles (10+ km)
Ceiling: 2200 feet AGL
Clouds: broken clouds at 2200 feet AGL
Weather: no significant weather observed at this time

Forecast for: GCLA (LA PALMA AIRPORT, ES)
Text: TAF GCLA 192000Z 1921/2021 36011KT 9999 FEW018 TX26/2013Z TN21/2005Z
Forecast period: 2100 UTC 19 August 2019 to 2100 UTC 20 August 2019
Forecast type: FROM: standard forecast or significant change
Winds: from the N (360 degrees) at 13 MPH (11 knots; 5.7 m/s)
Visibility: 6 or more miles 10+ km)
Ceiling: at least 12,000 feet AGL
Clouds: few clouds at 1800 feet AGL
Weather: no significant weather forecast for this period


 MAPA DO AEROPORTO


 INFORMAÇÕES DA PISTA

Pista 01 Tamanho da pista 7218 ft Largura da pista 148 ft
Elevação da pista 103 ft Ranhura da pista 0 ft Proa da pista 359
Pista 19 Tamanho da pista 7218 ft Largura da pista 148 ft
Elevação da pista 65 ft Ranhura da pista 0 ft Proa da pista 179

 FREQUÊNCIAS DO AEROPORTO

Tipo APP Nome CANARIAS A Frequência 126.1 MHZ
Tipo ATIS Nome INFO Frequência 118.6 MHZ
Tipo GND Nome GND Frequência 121.8 MHZ
Tipo TWR Nome TWR Frequência 118.9 MHZ

 AUXÍLIOS DE NAVEGAÇÃO PRÓXIMOS AO AEROPORTO

Tipo DME Nome La Palma Frequência 112400 KHZ
Tipo NDB Nome La Palma Frequência 389 KHZ